createdAt,value
2017-04-20T00:00:34.539Z,0
2017-04-20T00:01:35.798Z,0
2017-04-20T00:02:37.017Z,0
2017-04-20T00:03:38.246Z,0
2017-04-20T00:04:39.572Z,0
2017-04-20T00:05:41.788Z,0
2017-04-20T00:06:43.023Z,0
2017-04-20T00:07:44.334Z,0
2017-04-20T00:08:45.617Z,0
2017-04-20T00:09:46.914Z,0
2017-04-20T00:10:48.157Z,0
2017-04-20T00:11:49.402Z,0
2017-04-20T00:12:50.623Z,0
2017-04-20T00:13:51.866Z,0
2017-04-20T00:14:53.089Z,0
2017-04-20T00:15:54.341Z,0
2017-04-20T00:16:55.546Z,0
2017-04-20T00:17:56.949Z,0
2017-04-20T00:18:58.179Z,0
2017-04-20T00:19:59.422Z,0
2017-04-20T00:21:00.657Z,0
2017-04-20T00:22:01.892Z,0
2017-04-20T00:23:03.189Z,0
2017-04-20T00:24:04.399Z,0
2017-04-20T00:25:05.662Z,0
2017-04-20T00:26:06.892Z,0
2017-04-20T00:27:08.146Z,0
2017-04-20T00:28:09.427Z,0
2017-04-20T00:29:10.782Z,0
2017-04-20T00:30:12.015Z,0
2017-04-20T00:31:13.258Z,0
2017-04-20T00:32:14.485Z,0
2017-04-20T00:33:15.746Z,0
2017-04-20T00:34:16.961Z,0
2017-04-20T00:35:18.198Z,0
2017-04-20T00:36:19.483Z,0
2017-04-20T00:37:20.729Z,0
2017-04-20T00:38:21.962Z,0
2017-04-20T00:39:23.174Z,0
2017-04-20T00:40:24.412Z,0
2017-04-20T00:41:25.662Z,0
2017-04-20T00:42:26.994Z,0
2017-04-20T00:43:28.235Z,0
2017-04-20T00:44:29.501Z,0
2017-04-20T00:45:30.747Z,0
2017-04-20T00:46:31.986Z,0
2017-04-20T00:47:33.209Z,0
2017-04-20T00:48:34.438Z,0
2017-04-20T00:49:35.733Z,0
2017-04-20T00:50:36.970Z,0
2017-04-20T00:51:38.189Z,0
2017-04-20T00:52:39.456Z,0
2017-04-20T00:53:40.677Z,0
2017-04-20T00:54:41.900Z,0
2017-04-20T00:55:43.147Z,0
2017-04-20T00:56:44.360Z,0
2017-04-20T00:57:45.604Z,0
2017-04-20T00:58:46.836Z,0
2017-04-20T00:59:48.090Z,0
2017-04-20T01:00:49.330Z,0
2017-04-20T01:01:50.634Z,0
2017-04-20T01:02:51.970Z,0
2017-04-20T01:03:53.259Z,0
2017-04-20T01:04:54.494Z,0
2017-04-20T01:05:55.727Z,0
2017-04-20T01:06:56.977Z,0
2017-04-20T01:07:58.239Z,0
2017-04-20T01:08:59.546Z,0
2017-04-20T01:10:00.797Z,0
2017-04-20T01:11:02.026Z,0
2017-04-20T01:12:03.288Z,0
2017-04-20T01:13:04.498Z,0
2017-04-20T01:14:05.735Z,0
2017-04-20T01:15:07.027Z,0
2017-04-20T01:16:08.252Z,0
2017-04-20T01:17:09.488Z,0
2017-04-20T01:18:10.720Z,0
2017-04-20T01:19:12.041Z,0
2017-04-20T01:20:13.271Z,0
2017-04-20T01:21:14.625Z,0
2017-04-20T01:22:15.854Z,0
2017-04-20T01:23:17.125Z,0
2017-04-20T01:24:18.316Z,0
2017-04-20T01:25:19.565Z,0
2017-04-20T01:26:20.878Z,0
2017-04-20T01:27:22.104Z,0
2017-04-20T01:28:23.352Z,0
2017-04-20T01:29:24.565Z,0
2017-04-20T01:30:25.812Z,0
2017-04-20T01:31:27.042Z,0
2017-04-20T01:32:28.254Z,0
2017-04-20T01:34:53.909Z,0
2017-04-20T01:35:55.170Z,0
2017-04-20T01:36:56.387Z,0
2017-04-20T01:37:57.642Z,0
2017-04-20T01:38:58.867Z,0
2017-04-20T01:40:00.088Z,0
2017-04-20T01:41:01.368Z,0
2017-04-20T01:42:02.582Z,0
2017-04-20T01:43:03.817Z,0
2017-04-20T01:44:05.052Z,0
2017-04-20T01:45:06.291Z,0
2017-04-20T01:46:07.558Z,0
2017-04-20T01:47:08.799Z,0
2017-04-20T01:48:10.032Z,0
2017-04-20T01:49:11.253Z,0
2017-04-20T01:50:12.500Z,0
2017-04-20T01:51:13.741Z,0
2017-04-20T01:52:15.092Z,0
2017-04-20T01:53:16.255Z,0
2017-04-20T01:54:17.534Z,0
2017-04-20T01:55:18.795Z,0
2017-04-20T01:56:20.029Z,0
2017-04-20T01:57:21.260Z,0
2017-04-20T01:58:22.501Z,0
2017-04-20T01:59:23.742Z,0
2017-04-20T02:00:25.220Z,0
2017-04-20T02:01:26.449Z,0
2017-04-20T02:02:27.692Z,0
2017-04-20T02:03:28.921Z,0
2017-04-20T02:04:30.200Z,0
2017-04-20T02:05:31.442Z,0
2017-04-20T02:06:32.761Z,0
2017-04-20T02:07:33.995Z,0
2017-04-20T02:08:35.267Z,0
2017-04-20T02:09:36.506Z,0
2017-04-20T02:10:37.734Z,0
2017-04-20T02:11:38.993Z,0
2017-04-20T02:12:40.253Z,0
2017-04-20T02:13:41.558Z,0
2017-04-20T02:14:42.789Z,0
2017-04-20T02:15:44.023Z,0
2017-04-20T02:16:45.388Z,0
2017-04-20T02:17:46.528Z,0
2017-04-20T02:18:47.861Z,0
2017-04-20T02:19:49.170Z,0
2017-04-20T02:20:50.408Z,0
2017-04-20T02:21:51.652Z,0
2017-04-20T02:22:52.883Z,0
2017-04-20T02:23:54.130Z,0
2017-04-20T02:24:55.341Z,0
2017-04-20T02:25:56.594Z,0
2017-04-20T02:26:57.926Z,0
2017-04-20T02:27:59.171Z,0
2017-04-20T02:29:00.414Z,0
2017-04-20T02:30:01.628Z,0
2017-04-20T02:31:02.884Z,0
2017-04-20T02:32:04.088Z,0
2017-04-20T02:33:05.336Z,0
2017-04-20T02:34:06.583Z,0
2017-04-20T02:35:07.805Z,0
2017-04-20T02:36:09.043Z,0
2017-04-20T02:37:10.396Z,0
2017-04-20T02:38:11.619Z,0
2017-04-20T02:39:12.947Z,0
2017-04-20T02:40:14.172Z,0
2017-04-20T02:41:15.550Z,0
2017-04-20T02:42:16.757Z,0
2017-04-20T02:43:17.999Z,0
2017-04-20T02:44:19.272Z,0
2017-04-20T02:45:20.522Z,0
2017-04-20T02:46:21.779Z,0
2017-04-20T02:47:23.130Z,0
2017-04-20T02:48:24.352Z,0
2017-04-20T02:49:25.582Z,0
2017-04-20T02:50:26.967Z,0
2017-04-20T02:51:28.098Z,0
2017-04-20T02:52:29.423Z,0
2017-04-20T02:53:30.656Z,0
2017-04-20T02:54:31.878Z,0
2017-04-20T02:55:33.113Z,0
2017-04-20T02:56:34.342Z,0
2017-04-20T02:57:35.678Z,0
2017-04-20T02:58:36.914Z,0
2017-04-20T02:59:38.152Z,0
2017-04-20T03:00:39.387Z,0
2017-04-20T03:01:40.616Z,0
2017-04-20T03:02:41.847Z,0
2017-04-20T03:03:43.234Z,0
2017-04-20T03:04:44.467Z,0
2017-04-20T03:05:45.702Z,0
2017-04-20T03:06:46.934Z,0
2017-04-20T03:07:48.172Z,0
2017-04-20T03:08:49.461Z,0
2017-04-20T03:09:50.701Z,0
2017-04-20T03:10:51.949Z,0
2017-04-20T03:11:53.210Z,0
2017-04-20T03:12:54.438Z,0
2017-04-20T03:13:55.670Z,0
2017-04-20T03:14:56.900Z,0
2017-04-20T03:15:58.286Z,0
2017-04-20T03:16:59.764Z,0
2017-04-20T03:18:00.986Z,0
2017-04-20T03:19:02.223Z,0
2017-04-20T03:20:03.452Z,0
2017-04-20T03:21:04.714Z,0
2017-04-20T03:22:05.963Z,0
2017-04-20T03:23:07.249Z,0
2017-04-20T03:24:08.459Z,0
2017-04-20T03:25:09.688Z,0
2017-04-20T03:26:10.942Z,0
2017-04-20T03:27:12.332Z,0
2017-04-20T03:28:13.679Z,0
2017-04-20T03:29:14.937Z,0
2017-04-20T03:30:16.153Z,0
2017-04-20T03:31:17.397Z,0
2017-04-20T03:32:18.627Z,0
2017-04-20T03:33:19.901Z,0
2017-04-20T03:34:21.103Z,0
2017-04-20T03:35:22.369Z,0
2017-04-20T03:36:23.623Z,0
2017-04-20T03:37:24.877Z,0
2017-04-20T03:38:26.088Z,0
2017-04-20T03:39:27.340Z,0
2017-04-20T03:40:28.557Z,0
2017-04-20T03:41:29.808Z,0
2017-04-20T03:42:31.087Z,0
2017-04-20T03:43:32.330Z,0
2017-04-20T03:44:33.563Z,0
2017-04-20T03:45:34.792Z,0
2017-04-20T03:46:36.197Z,4
2017-04-20T03:47:37.424Z,4
2017-04-20T03:48:38.705Z,4
2017-04-20T03:49:39.942Z,0
2017-04-20T03:50:41.208Z,4
2017-04-20T03:51:42.429Z,4
2017-04-20T03:52:43.664Z,4
2017-04-20T03:53:44.888Z,4
2017-04-20T03:54:46.115Z,4
2017-04-20T03:55:47.369Z,8
2017-04-20T03:56:48.625Z,8
2017-04-20T03:57:49.868Z,8
2017-04-20T03:58:51.119Z,12
2017-04-20T03:59:52.411Z,16
2017-04-20T04:00:53.638Z,16
2017-04-20T04:01:54.857Z,16
2017-04-20T04:02:56.082Z,20
2017-04-20T04:03:57.318Z,24
2017-04-20T04:04:58.544Z,28
2017-04-20T04:05:59.772Z,32
2017-04-20T04:07:01.003Z,40
2017-04-20T04:08:02.289Z,44
2017-04-20T04:09:03.542Z,48
2017-04-20T04:10:04.907Z,60
2017-04-20T04:11:06.117Z,68
2017-04-20T04:12:07.350Z,76
2017-04-20T04:13:08.576Z,84
2017-04-20T04:14:09.818Z,100
2017-04-20T04:15:11.162Z,108
2017-04-20T04:16:12.391Z,124
2017-04-20T04:17:13.625Z,144
2017-04-20T04:18:14.851Z,164
2017-04-20T04:19:16.084Z,180
2017-04-20T04:20:17.319Z,200
2017-04-20T04:21:18.550Z,220
2017-04-20T04:22:19.791Z,236
2017-04-20T04:23:21.019Z,264
2017-04-20T04:24:22.252Z,288
2017-04-20T04:25:23.486Z,316
2017-04-20T04:26:24.714Z,348
2017-04-20T04:27:26.076Z,384
2017-04-20T04:28:27.306Z,420
2017-04-20T04:29:28.626Z,456
2017-04-20T04:30:29.861Z,496
2017-04-20T04:31:31.103Z,540
2017-04-20T04:32:32.397Z,576
2017-04-20T04:33:33.752Z,616
2017-04-20T04:34:35.091Z,660
2017-04-20T04:35:36.342Z,708
2017-04-20T04:36:37.570Z,764
2017-04-20T04:37:38.806Z,816
2017-04-20T04:38:40.094Z,872
2017-04-20T04:39:41.360Z,924
2017-04-20T04:40:42.605Z,972
2017-04-20T04:41:43.897Z,1016
2017-04-20T04:42:45.125Z,1064
2017-04-20T04:43:46.355Z,1120
2017-04-20T04:44:47.592Z,1168
2017-04-20T04:45:48.962Z,1196
2017-04-20T04:46:50.231Z,1212
2017-04-20T04:47:51.463Z,1232
2017-04-20T04:48:52.768Z,1268
2017-04-20T04:49:53.984Z,1316
2017-04-20T04:50:55.235Z,1384
2017-04-20T04:51:56.478Z,1456
2017-04-20T04:52:57.760Z,1556
2017-04-20T04:53:58.987Z,1672
2017-04-20T04:55:00.222Z,1772
2017-04-20T04:56:01.459Z,1856
2017-04-20T04:57:02.694Z,1912
2017-04-20T04:58:03.976Z,1932
2017-04-20T04:59:05.216Z,1988
2017-04-20T05:00:06.433Z,2104
2017-04-20T05:01:07.706Z,2232
2017-04-20T05:02:08.939Z,2364
2017-04-20T05:03:10.187Z,2500
2017-04-20T05:04:11.423Z,2632
2017-04-20T05:05:12.686Z,2760
2017-04-20T05:06:13.939Z,2896
2017-04-20T05:07:15.276Z,3036
2017-04-20T05:08:16.531Z,3184
2017-04-20T05:09:17.746Z,3384
2017-04-20T05:10:18.977Z,3540
2017-04-20T05:11:20.216Z,3708
2017-04-20T05:12:21.573Z,3784
2017-04-20T05:13:22.850Z,3900
2017-04-20T05:14:24.051Z,4248
2017-04-20T05:15:25.274Z,4740
2017-04-20T05:16:26.505Z,5004
2017-04-20T05:17:27.730Z,5264
2017-04-20T05:18:28.959Z,5276
2017-04-20T05:19:30.282Z,5452
2017-04-20T05:20:31.539Z,5660
2017-04-20T05:21:32.767Z,5792
2017-04-20T05:22:33.997Z,5640
2017-04-20T05:23:35.245Z,5864
2017-04-20T05:24:36.564Z,6044
2017-04-20T05:25:37.864Z,6124
2017-04-20T05:26:39.105Z,6552
2017-04-20T05:27:40.333Z,6456
2017-04-20T05:28:41.610Z,6620
2017-04-20T05:29:42.872Z,6860
2017-04-20T05:30:44.091Z,7160
2017-04-20T05:31:45.329Z,7380
2017-04-20T05:32:46.584Z,7588
2017-04-20T05:33:47.963Z,7668
2017-04-20T05:34:49.228Z,7800
2017-04-20T05:35:50.468Z,7996
2017-04-20T05:36:51.826Z,8160
2017-04-20T05:37:53.066Z,8316
2017-04-20T05:38:54.333Z,8420
2017-04-20T05:39:55.563Z,8876
2017-04-20T05:40:56.802Z,8976
2017-04-20T05:41:58.038Z,9000
2017-04-20T05:42:59.288Z,9032
2017-04-20T05:44:00.539Z,8936
2017-04-20T05:45:01.838Z,8900
2017-04-20T05:46:03.220Z,9144
2017-04-20T05:47:04.442Z,9316
2017-04-20T05:48:05.675Z,9308
2017-04-20T05:49:06.929Z,9536
2017-04-20T05:50:08.167Z,9908
2017-04-20T05:51:09.427Z,10008
2017-04-20T05:52:10.657Z,10312
2017-04-20T05:53:11.949Z,10680
2017-04-20T05:54:13.206Z,3788
2017-04-20T05:55:14.474Z,11088
2017-04-20T05:56:15.838Z,11228
2017-04-20T05:57:17.090Z,11220
2017-04-20T05:58:18.335Z,11312
2017-04-20T05:59:19.746Z,10944
2017-04-20T06:00:20.961Z,10928
2017-04-20T06:01:22.210Z,11668
2017-04-20T06:02:23.463Z,12320
2017-04-20T06:03:24.719Z,12824
2017-04-20T06:04:25.976Z,13292
2017-04-20T06:05:27.218Z,13792
2017-04-20T06:06:28.459Z,14144
2017-04-20T06:07:29.759Z,14368
2017-04-20T06:08:31.149Z,14656
2017-04-20T06:09:32.288Z,14784
2017-04-20T06:10:33.550Z,15040
2017-04-20T06:11:34.773Z,14752
2017-04-20T06:12:36.023Z,14560
2017-04-20T06:13:37.260Z,15200
2017-04-20T06:14:38.498Z,15104
2017-04-20T06:15:39.858Z,16288
2017-04-20T06:16:41.207Z,17312
2017-04-20T06:17:42.451Z,15776
2017-04-20T06:18:43.698Z,18720
2017-04-20T06:19:44.941Z,19488
2017-04-20T06:20:46.206Z,20256
2017-04-20T06:21:47.505Z,20992
2017-04-20T06:22:48.794Z,21152
2017-04-20T06:23:50.065Z,21056
2017-04-20T06:24:51.294Z,21600
2017-04-20T06:25:52.533Z,21952
2017-04-20T06:26:53.791Z,22016
2017-04-20T06:27:55.041Z,23072
2017-04-20T06:28:56.282Z,22304
2017-04-20T06:29:57.545Z,21472
2017-04-20T06:30:58.862Z,23520
2017-04-20T06:32:00.105Z,24384
2017-04-20T06:33:01.465Z,25216
2017-04-20T06:34:02.711Z,25504
2017-04-20T06:35:04.046Z,26560
2017-04-20T06:36:05.295Z,26976
2017-04-20T06:37:06.534Z,26656
2017-04-20T06:38:07.781Z,27296
2017-04-20T06:39:09.022Z,27584
2017-04-20T06:40:10.275Z,27616
2017-04-20T06:41:11.664Z,28608
2017-04-20T06:42:12.913Z,28640
2017-04-20T06:43:14.170Z,28864
2017-04-20T06:44:15.492Z,29184
2017-04-20T06:45:16.758Z,28640
2017-04-20T06:46:18.136Z,24096
2017-04-20T06:47:19.380Z,25568
2017-04-20T06:48:20.619Z,24160
2017-04-20T06:49:21.896Z,26144
2017-04-20T06:50:23.128Z,27168
2017-04-20T06:51:24.402Z,30624
2017-04-20T06:52:25.673Z,29792
2017-04-20T06:53:26.959Z,30880
2017-04-20T06:54:28.216Z,30112
2017-04-20T06:55:29.518Z,29888
2017-04-20T06:56:30.753Z,29600
2017-04-20T06:57:32.017Z,30784
2017-04-20T06:58:33.342Z,31776
2017-04-20T06:59:34.563Z,32000
2017-04-20T07:00:35.846Z,32576
2017-04-20T07:01:37.174Z,33056
2017-04-20T07:02:38.549Z,33088
2017-04-20T07:03:39.795Z,33216
2017-04-20T07:04:41.154Z,29440
2017-04-20T07:05:42.393Z,30080
2017-04-20T07:06:43.642Z,28832
2017-04-20T07:07:44.909Z,29728
2017-04-20T07:08:46.295Z,29280
2017-04-20T07:09:47.599Z,35072
2017-04-20T07:10:48.846Z,34272
2017-04-20T07:11:50.116Z,34048
2017-04-20T07:12:51.405Z,34304
2017-04-20T07:13:52.695Z,33024
2017-04-20T07:14:53.989Z,29184
2017-04-20T07:15:55.221Z,30912
2017-04-20T07:16:56.458Z,33664
2017-04-20T07:17:57.704Z,34176
2017-04-20T07:18:58.964Z,33440
2017-04-20T07:20:00.213Z,34144
2017-04-20T07:21:01.477Z,36864
2017-04-20T07:22:02.739Z,38016
2017-04-20T07:23:04.019Z,36416
2017-04-20T07:24:05.285Z,38080
2017-04-20T07:25:06.534Z,38432
2017-04-20T07:26:07.801Z,36736
2017-04-20T07:27:09.077Z,40000
2017-04-20T07:28:10.410Z,40832
2017-04-20T07:29:11.735Z,37248
2017-04-20T07:30:13.029Z,38272
2017-04-20T07:31:14.281Z,41920
2017-04-20T07:32:15.640Z,39008
2017-04-20T07:33:16.894Z,39840
2017-04-20T07:34:18.225Z,41344
2017-04-20T07:35:19.482Z,43008
2017-04-20T07:36:20.743Z,43360
2017-04-20T07:37:21.988Z,46528
2017-04-20T07:38:23.248Z,45952
2017-04-20T07:39:24.578Z,46880
2017-04-20T07:40:25.859Z,46848
2017-04-20T07:41:27.119Z,46048
2017-04-20T07:42:28.440Z,41600
2017-04-20T07:43:29.705Z,41088
2017-04-20T07:44:30.981Z,45792
2017-04-20T07:45:32.227Z,46912
2017-04-20T07:46:33.483Z,46880
2017-04-20T07:47:34.763Z,48096
2017-04-20T07:48:35.997Z,42688
2017-04-20T07:49:37.239Z,38272
2017-04-20T07:50:38.616Z,37792
2017-04-20T07:51:39.889Z,44960
2017-04-20T07:52:41.232Z,41568
2017-04-20T07:53:42.494Z,48672
2017-04-20T07:54:43.744Z,49472
2017-04-20T07:55:45.009Z,49600
2017-04-20T07:56:46.392Z,49696
2017-04-20T07:57:47.715Z,52448
2017-04-20T07:58:49.001Z,49920
2017-04-20T07:59:50.263Z,48960
2017-04-20T08:00:51.560Z,50176
2017-04-20T08:01:52.809Z,40544
2017-04-20T08:02:54.118Z,42144
2017-04-20T08:03:55.378Z,45728
2017-04-20T08:04:56.717Z,45408
2017-04-20T08:05:58.011Z,47520
2017-04-20T08:06:59.269Z,46240
2017-04-20T08:08:00.637Z,44768
2017-04-20T08:09:01.878Z,42560
2017-04-20T08:10:03.180Z,40736
2017-04-20T08:11:04.418Z,40192
2017-04-20T08:12:05.665Z,39360
2017-04-20T08:13:06.917Z,38528
2017-04-20T08:14:08.206Z,37760
2017-04-20T08:15:09.539Z,32000
2017-04-20T08:16:10.869Z,41504
2017-04-20T08:17:12.137Z,41728
2017-04-20T08:18:13.418Z,44576
2017-04-20T08:19:14.709Z,44416
2017-04-20T08:20:15.937Z,46144
2017-04-20T08:21:17.200Z,46048
2017-04-20T08:22:18.501Z,44704
2017-04-20T08:23:19.695Z,39072
2017-04-20T08:24:20.964Z,45760
2017-04-20T08:25:22.210Z,45728
2017-04-20T08:26:23.497Z,44000
2017-04-20T08:27:24.745Z,50080
2017-04-20T08:28:26.177Z,50528
2017-04-20T08:29:27.419Z,49632
2017-04-20T08:30:28.690Z,51712
2017-04-20T08:31:29.938Z,49120
2017-04-20T08:32:31.269Z,45984
2017-04-20T08:33:32.526Z,48416
2017-04-20T08:34:33.797Z,49056
2017-04-20T08:35:35.069Z,48992
2017-04-20T08:36:36.329Z,48544
2017-04-20T08:37:37.636Z,48032
2017-04-20T08:38:38.841Z,48544
2017-04-20T08:39:40.207Z,50112
2017-04-20T08:40:41.498Z,50528
2017-04-20T08:41:42.766Z,54464
2017-04-20T08:42:44.015Z,54400
2017-04-20T08:43:45.255Z,51712
2017-04-20T08:44:46.555Z,51808
2017-04-20T08:45:47.823Z,51712
2017-04-20T08:46:49.085Z,50720
2017-04-20T08:47:50.354Z,48288
2017-04-20T08:48:51.593Z,47296
2017-04-20T08:49:52.860Z,49728
2017-04-20T08:50:54.098Z,52096
2017-04-20T08:51:55.484Z,52512
2017-04-20T08:52:56.732Z,54240
2017-04-20T08:53:57.981Z,51648
2017-04-20T08:54:59.291Z,52128
2017-04-20T08:56:00.574Z,54464
2017-04-20T08:57:01.851Z,56768
2017-04-20T08:58:03.201Z,57344
2017-04-20T08:59:04.457Z,56320
2017-04-20T09:00:05.726Z,55360
2017-04-20T09:01:06.987Z,56544
2017-04-20T09:02:08.262Z,52512
2017-04-20T09:03:09.625Z,54304
2017-04-20T09:04:10.936Z,57920
2017-04-20T09:05:12.192Z,63680
2017-04-20T09:06:13.442Z,64512
2017-04-20T09:07:14.691Z,57024
2017-04-20T09:08:15.946Z,59840
2017-04-20T09:09:17.220Z,60992
2017-04-20T09:10:18.521Z,60224
2017-04-20T09:11:19.767Z,58496
2017-04-20T09:12:21.027Z,63168
2017-04-20T09:13:22.280Z,60864
2017-04-20T09:14:23.698Z,64544
2017-04-20T09:15:25.053Z,64896
2017-04-20T09:16:26.212Z,68128
2017-04-20T09:17:27.593Z,66560
2017-04-20T09:18:28.839Z,61920
2017-04-20T09:19:30.079Z,56064
2017-04-20T09:20:31.452Z,54784
2017-04-20T09:21:32.705Z,50336
2017-04-20T09:22:33.930Z,48672
2017-04-20T09:23:35.238Z,50912
2017-04-20T09:24:36.485Z,57920
2017-04-20T09:25:37.739Z,62944
2017-04-20T09:26:39.015Z,64480
2017-04-20T09:27:40.273Z,65952
2017-04-20T09:28:41.559Z,71456
2017-04-20T09:29:42.806Z,69312
2017-04-20T09:30:44.071Z,65568
2017-04-20T09:31:45.292Z,69728
2017-04-20T09:32:46.562Z,66592
2017-04-20T09:33:47.856Z,70592
2017-04-20T09:34:49.146Z,68512
2017-04-20T09:35:50.408Z,64960
2017-04-20T09:36:51.667Z,66048
2017-04-20T09:37:52.920Z,63904
2017-04-20T09:38:54.175Z,65152
2017-04-20T09:39:55.550Z,67680
2017-04-20T09:40:56.795Z,70336
2017-04-20T09:41:58.061Z,67872
2017-04-20T09:42:59.537Z,66272
2017-04-20T09:44:00.809Z,72224
2017-04-20T09:45:02.089Z,76768
2017-04-20T09:46:03.429Z,72512
2017-04-20T09:47:04.695Z,68224
2017-04-20T09:48:05.968Z,71872
2017-04-20T09:49:07.219Z,69504
2017-04-20T09:50:08.481Z,68320
2017-04-20T09:51:09.853Z,72896
2017-04-20T09:52:11.206Z,72288
2017-04-20T09:53:12.449Z,80992
2017-04-20T09:54:13.715Z,60000
2017-04-20T09:55:14.969Z,63168
2017-04-20T09:56:16.253Z,36224
2017-04-20T09:57:17.572Z,28416
2017-04-20T09:58:18.821Z,68032
2017-04-20T09:59:20.082Z,62368
2017-04-20T10:00:21.327Z,27296
2017-04-20T10:01:22.636Z,20224
2017-04-20T10:02:23.898Z,24544
2017-04-20T10:03:25.200Z,24576
2017-04-20T10:04:26.465Z,45024
2017-04-20T10:05:27.732Z,50368
2017-04-20T10:06:28.973Z,66560
2017-04-20T10:07:30.234Z,70464
2017-04-20T10:08:31.483Z,79264
2017-04-20T10:09:32.731Z,80192
2017-04-20T10:10:34.002Z,76096
2017-04-20T10:11:35.382Z,75040
2017-04-20T10:12:36.644Z,79616
2017-04-20T10:13:37.925Z,73248
2017-04-20T10:14:39.303Z,66400
2017-04-20T10:15:40.545Z,54432
2017-04-20T10:16:41.820Z,55232
2017-04-20T10:17:43.100Z,56160
2017-04-20T10:18:44.342Z,55424
2017-04-20T10:19:45.709Z,60224
2017-04-20T10:20:47.050Z,57760
2017-04-20T10:21:48.305Z,54912
2017-04-20T10:22:49.554Z,58592
2017-04-20T10:23:50.806Z,60256
2017-04-20T10:24:52.060Z,62592
2017-04-20T10:25:53.355Z,56992
2017-04-20T10:26:54.570Z,62400
2017-04-20T10:27:55.904Z,59520
2017-04-20T10:28:57.220Z,52640
2017-04-20T10:29:58.465Z,53856
2017-04-20T10:30:59.710Z,57664
2017-04-20T10:32:00.991Z,59424
2017-04-20T10:33:02.265Z,58592
2017-04-20T10:34:03.555Z,52032
2017-04-20T10:35:04.799Z,48416
2017-04-20T10:36:06.067Z,51680
2017-04-20T10:37:07.327Z,51584
2017-04-20T10:38:08.596Z,32064
2017-04-20T10:39:09.854Z,14016
2017-04-20T10:40:11.206Z,12784
2017-04-20T10:41:12.445Z,12296
2017-04-20T10:42:13.757Z,11992
2017-04-20T10:43:15.008Z,11888
2017-04-20T10:44:16.278Z,11968
2017-04-20T10:45:17.660Z,11856
2017-04-20T10:46:18.918Z,11784
2017-04-20T10:47:20.180Z,11824
2017-04-20T10:48:21.439Z,11684
2017-04-20T10:49:22.803Z,11632
2017-04-20T10:50:24.045Z,11496
2017-04-20T10:51:25.297Z,11000
2017-04-20T10:52:26.539Z,10448
2017-04-20T10:53:27.815Z,10392
2017-04-20T10:54:29.070Z,10368
2017-04-20T10:55:30.312Z,10580
2017-04-20T10:56:31.597Z,10860
2017-04-20T10:57:32.967Z,10924
2017-04-20T10:58:34.161Z,10772
2017-04-20T10:59:35.514Z,10564
2017-04-20T11:00:36.781Z,10404
2017-04-20T11:01:38.031Z,10296
2017-04-20T11:02:39.281Z,10152
2017-04-20T11:03:40.569Z,10076
2017-04-20T11:04:41.810Z,10032
2017-04-20T11:05:43.048Z,9972
2017-04-20T11:06:44.293Z,9900
2017-04-20T11:07:45.911Z,9920
2017-04-20T11:08:47.060Z,9692
2017-04-20T11:09:48.355Z,9740
2017-04-20T11:10:49.654Z,9592
2017-04-20T11:11:50.897Z,9628
2017-04-20T11:12:52.142Z,9604
2017-04-20T11:13:53.509Z,9512
2017-04-20T11:14:54.827Z,9464
2017-04-20T11:15:56.165Z,9388
2017-04-20T11:16:57.401Z,9228
2017-04-20T11:17:58.637Z,9148
2017-04-20T11:18:59.894Z,9080
2017-04-20T11:20:01.129Z,8972
2017-04-20T11:21:02.375Z,8852
2017-04-20T11:22:03.666Z,8732
2017-04-20T11:23:04.933Z,8620
2017-04-20T11:24:06.183Z,8516
2017-04-20T11:25:07.438Z,8416
2017-04-20T11:26:08.784Z,8376
2017-04-20T11:27:10.072Z,8352
2017-04-20T11:28:11.313Z,8292
2017-04-20T11:29:12.549Z,8232
2017-04-20T11:30:13.828Z,8144
2017-04-20T11:31:15.080Z,8024
2017-04-20T11:32:16.339Z,7908
2017-04-20T11:33:17.731Z,7832
2017-04-20T11:34:18.953Z,7768
2017-04-20T11:35:20.209Z,7724
2017-04-20T11:36:21.455Z,7636
2017-04-20T11:37:22.721Z,7612
2017-04-20T11:38:23.953Z,7608
2017-04-20T11:39:25.193Z,7600
2017-04-20T11:40:26.431Z,7544
2017-04-20T11:41:27.672Z,7472
2017-04-20T11:42:28.912Z,7384
2017-04-20T11:43:30.149Z,7324
2017-04-20T11:44:31.389Z,7308
2017-04-20T11:45:32.630Z,7328
2017-04-20T11:46:33.887Z,7404
2017-04-20T11:47:35.156Z,7464
2017-04-20T11:48:36.372Z,7480
2017-04-20T11:49:37.631Z,7448
2017-04-20T11:50:38.873Z,7360
2017-04-20T11:51:40.111Z,7300
2017-04-20T11:52:41.354Z,7264
2017-04-20T11:53:42.598Z,7236
2017-04-20T11:54:43.842Z,7192
2017-04-20T11:55:45.086Z,7132
2017-04-20T11:56:46.346Z,7048
2017-04-20T11:57:47.678Z,7092
2017-04-20T11:58:48.957Z,7040
2017-04-20T11:59:50.179Z,7008
2017-04-20T12:00:51.434Z,6972
2017-04-20T12:01:52.695Z,6900
2017-04-20T12:02:53.924Z,6916
2017-04-20T12:03:55.163Z,6788
2017-04-20T12:04:56.463Z,6836
2017-04-20T12:05:57.762Z,6800
2017-04-20T12:06:59.001Z,6728
2017-04-20T12:08:00.256Z,6680
2017-04-20T12:09:01.527Z,6620
2017-04-20T12:10:02.794Z,6588
2017-04-20T12:11:04.055Z,6600
2017-04-20T12:12:05.404Z,6592
2017-04-20T12:13:06.633Z,6556
2017-04-20T12:14:07.937Z,6576
2017-04-20T12:15:09.273Z,6508
2017-04-20T12:16:10.511Z,6492
2017-04-20T12:17:11.776Z,6376
2017-04-20T12:18:13.024Z,6344
2017-04-20T12:19:14.270Z,6296
2017-04-20T12:20:15.517Z,6260
2017-04-20T12:21:16.787Z,6220
2017-04-20T12:22:18.020Z,6228
2017-04-20T12:23:19.310Z,6192
2017-04-20T12:24:20.544Z,6156
2017-04-20T12:25:21.855Z,6124
2017-04-20T12:26:23.120Z,6100
2017-04-20T12:27:24.343Z,6084
2017-04-20T12:28:25.611Z,6000
2017-04-20T12:29:26.889Z,6040
2017-04-20T12:30:28.254Z,6020
2017-04-20T12:31:29.525Z,6024
2017-04-20T12:32:30.777Z,5996
2017-04-20T12:33:32.020Z,5964
2017-04-20T12:34:33.295Z,5908
2017-04-20T12:35:34.616Z,5848
2017-04-20T12:36:35.876Z,5832
2017-04-20T12:37:37.135Z,5848
2017-04-20T12:38:38.384Z,5864
2017-04-20T12:39:39.655Z,5840
2017-04-20T12:40:40.892Z,5804
2017-04-20T12:41:42.143Z,5776
2017-04-20T12:42:43.376Z,5768
2017-04-20T12:43:44.620Z,5760
2017-04-20T12:44:45.921Z,5744
2017-04-20T12:45:47.176Z,5732
2017-04-20T12:46:48.402Z,5720
2017-04-20T12:47:49.650Z,5696
2017-04-20T12:48:50.897Z,5616
2017-04-20T12:49:52.156Z,5552
2017-04-20T12:50:53.397Z,5548
2017-04-20T12:51:54.654Z,5588
2017-04-20T12:52:56.162Z,5560
2017-04-20T12:53:57.412Z,5560
2017-04-20T12:54:58.626Z,5548
2017-04-20T12:55:59.871Z,5548
2017-04-20T12:57:01.118Z,5552
2017-04-20T12:58:02.361Z,5532
2017-04-20T12:59:03.601Z,5504
2017-04-20T13:00:04.841Z,5456
2017-04-20T13:01:06.083Z,5400
2017-04-20T13:02:07.539Z,5352
2017-04-20T13:03:08.805Z,5304
2017-04-20T13:04:10.065Z,5260
2017-04-20T13:05:11.312Z,5236
2017-04-20T13:06:12.740Z,5236
2017-04-20T13:07:14.002Z,5224
2017-04-20T13:08:15.254Z,5220
2017-04-20T13:09:16.512Z,5232
2017-04-20T13:10:17.780Z,5224
2017-04-20T13:11:18.987Z,5216
2017-04-20T13:12:20.318Z,5200
2017-04-20T13:13:21.687Z,5188
2017-04-20T13:14:22.977Z,5168
2017-04-20T13:15:24.224Z,5104
2017-04-20T13:16:25.481Z,5108
2017-04-20T13:17:26.713Z,5076
2017-04-20T13:18:28.053Z,5020
2017-04-20T13:19:29.332Z,5028
2017-04-20T13:20:30.552Z,4996
2017-04-20T13:21:31.869Z,4976
2017-04-20T13:22:33.124Z,4944
2017-04-20T13:23:34.363Z,4844
2017-04-20T13:24:35.742Z,4860
2017-04-20T13:25:37.032Z,4832
2017-04-20T13:26:38.261Z,4804
2017-04-20T13:27:39.504Z,4772
2017-04-20T13:28:40.733Z,4760
2017-04-20T13:29:42.055Z,4720
2017-04-20T13:30:43.283Z,4688
2017-04-20T13:31:44.626Z,4680
2017-04-20T13:32:45.884Z,4660
2017-04-20T13:33:47.132Z,4644
2017-04-20T13:34:48.364Z,4600
2017-04-20T13:35:49.631Z,4564
2017-04-20T13:36:50.870Z,4532
2017-04-20T13:37:52.189Z,4512
2017-04-20T13:38:53.460Z,4488
2017-04-20T13:39:54.687Z,4464
2017-04-20T13:40:55.965Z,4452
2017-04-20T13:41:57.199Z,4436
2017-04-20T13:42:58.423Z,4428
2017-04-20T13:43:59.774Z,4424
2017-04-20T13:45:01.015Z,4420
2017-04-20T13:46:02.252Z,4404
2017-04-20T13:47:03.501Z,4392
2017-04-20T13:48:04.777Z,4372
2017-04-20T13:49:06.042Z,4348
2017-04-20T13:50:07.347Z,4316
2017-04-20T13:51:08.585Z,4304
2017-04-20T13:52:09.860Z,4260